Altoona Blair County Airport Altoona US
ICAO: KAOO
IATA: AOO
Category: Medium
Scheduled Services: Yes

Elevation: 1503 ft
TransAlt. 18000 ft.

Airport Communications:
ASOS:127.125
CLEVELAND CNTR:121.2
CTAF:123.6
RDO:122.1
RDO:122.2
UNICOM:123

KAOO Zoom In..

If Map Doesn't Load, Click Here

Runways:

(A) RW 03 length 5465 ft width 100 ft
---- / hdg 26

(B) RW 12 length 3668 ft width 75 ft
---- / hdg 118

(C) RW 21 length 5465 ft width 100 ft
ILS 111.10 / hdg 206

(D) RW 30 length 3668 ft width 75 ft
---- / hdg 298

Location; KAOO
Day. 21 / Time. 13.53 Zulu
* Altimeter: 30.16
* Temperature: 22° c. 71.6°f.
* Wind from: 190° Speed 09 kn.
Dewpoint: 19° c.
Visibility: 10 Statute Miles.
Clouds: Overcast 1000 ft.

KAOO 211353Z AUTO 19009KT 10SM OVC010 22/19 A3016 RMK AO2 SLP203 T02170189


Wind From 190°
Speed 09 kn.

 
 
jpsmedia.com for Web Design worldairports.se 2018   terms of use